Terminal Aerodrome Forecast
Issued by NWS

Home | Current Version | Previous Version | Text Only | Print | Product List | Glossary On
Versions: 1 2 3 4 5 6 7 8 9 10 11 12 13 14
000
FTUS41 KBTV 292325
TAFSLK
TAF
KSLK 292325Z 3000/3024 20010G20KT 3SM -SHSN OVC035
      TEMPO 3000/3004 2SM -SN BR BKN025
     FM300400 20008KT 2SM -SN BR OVC020
      TEMPO 3004/3006 3SM -SN BR
     FM300900 22008KT 1SM -SN BR OVC009
     FM301400 30007KT 1SM -SN BR OVC009=

USA.gov is the U.S. government's official web portal to all federal, state and local government web resources and services.